Time;durP1;ratioP1;P1;durP2;ratioP2;P2;SDS_P1;SDS_P2;PMS_P1;PMS_P2;Temp;Humidity;BMP_temperature;BMP_pressure;BME280_temperature;BME280_humidity;BME280_pressure;Samples;Min_cycle;Max_cycle;Signal;HPM_P1;HPM_P2
2022/03/19 00:01:23;;;;;;;31.63;15.00;;;;;;;-0.32;nan;97062.53;5048398;28;20624;-70
2022/03/19 00:03:49;;;;;;;19.37;13.60;;;;;;;-0.16;nan;97062.34;5048832;28;20198;-69
2022/03/19 00:06:16;;;;;;;24.93;13.53;;;;;;;-0.19;nan;97068.84;5048313;28;20203;-70
2022/03/19 00:08:43;;;;;;;24.30;13.63;;;;;;;-0.13;nan;97064.97;5050061;28;20199;-69
2022/03/19 00:11:10;;;;;;;21.27;12.57;;;;;;;-0.18;nan;97065.56;5050568;27;20191;-69
2022/03/19 00:13:37;;;;;;;28.90;13.40;;;;;;;-0.15;nan;97066.53;5050495;28;20214;-70
2022/03/19 00:16:06;;;;;;;18.73;11.53;;;;;;;0.06;nan;97066.53;5049650;28;20291;-70
2022/03/19 00:18:33;;;;;;;23.57;14.17;;;;;;;0.32;nan;97060.03;5049458;28;20195;-70
2022/03/19 00:20:59;;;;;;;27.80;13.57;;;;;;;0.52;nan;97053.25;5049784;28;20192;-69
2022/03/19 00:23:27;;;;;;;25.03;12.77;;;;;;;0.80;nan;97055.97;5049771;28;20192;-70
2022/03/19 00:25:53;;;;;;;24.20;12.60;;;;;;;0.62;nan;97061.16;5049507;28;20195;-68
2022/03/19 00:28:20;;;;;;;18.83;12.17;;;;;;;0.63;nan;97055.38;5049785;28;20191;-70
2022/03/19 00:30:47;;;;;;;23.13;12.90;;;;;;;0.59;nan;97050.19;5050084;27;20199;-70
2022/03/19 00:33:16;;;;;;;23.50;13.37;;;;;;;0.70;nan;97053.09;5137313;27;20714;-70
2022/03/19 00:35:43;;;;;;;25.43;13.33;;;;;;;0.88;nan;97043.72;5154009;27;20547;-70
2022/03/19 00:38:10;;;;;;;22.80;13.53;;;;;;;0.82;nan;97048.50;5154926;27;20248;-70
2022/03/19 00:40:37;;;;;;;25.27;13.20;;;;;;;0.39;nan;97051.97;5154036;27;20195;-69
2022/03/19 00:43:04;;;;;;;23.80;12.23;;;;;;;0.12;nan;97049.28;5154378;27;20192;-69
2022/03/19 00:45:31;;;;;;;31.00;14.40;;;;;;;0.32;nan;97055.88;5154830;27;20196;-70
2022/03/19 00:47:58;;;;;;;28.80;13.87;;;;;;;0.56;nan;97055.94;5153643;27;20191;-70
2022/03/19 00:50:26;;;;;;;23.80;13.53;;;;;;;0.70;nan;97053.09;5154056;27;20654;-71
2022/03/19 00:52:53;;;;;;;21.53;13.17;;;;;;;0.72;nan;97056.50;5169432;27;20247;-71
2022/03/19 00:55:20;;;;;;;26.67;13.30;;;;;;;0.75;nan;97051.59;5174858;27;20780;-70
2022/03/19 00:57:48;;;;;;;23.73;13.70;;;;;;;0.79;nan;97054.25;5174966;27;20195;-70
2022/03/19 01:00:23;;;;;;;22.50;12.13;;;;;;;0.80;nan;97057.63;5174799;27;20267;-70
2022/03/19 01:02:50;;;;;;;24.67;12.60;;;;;;;0.46;nan;97053.06;5174436;27;20205;-74
2022/03/19 01:05:17;;;;;;;28.77;12.90;;;;;;;0.11;nan;97060.06;5174237;27;20183;-70
2022/03/19 01:07:47;;;;;;;22.33;13.27;;;;;;;0.18;nan;97051.16;5174707;27;20190;-69
2022/03/19 01:10:17;;;;;;;22.87;13.43;;;;;;;0.31;nan;97053.31;5173873;27;20586;-70
2022/03/19 01:12:44;;;;;;;20.50;11.63;;;;;;;0.39;nan;97056.97;5174904;27;20198;-70
2022/03/19 01:15:11;;;;;;;20.47;13.10;;;;;;;0.39;nan;97056.09;5173783;27;20223;-70
2022/03/19 01:17:39;;;;;;;29.17;14.00;;;;;;;0.40;nan;97051.16;5174053;27;20669;-69
2022/03/19 01:20:08;;;;;;;25.00;12.40;;;;;;;0.46;nan;97050.56;5163067;27;20207;-69
2022/03/19 01:22:35;;;;;;;27.60;13.30;;;;;;;0.54;nan;97047.50;5153042;27;20274;-71
2022/03/19 01:25:05;;;;;;;24.27;12.90;;;;;;;0.59;nan;97050.19;5153420;27;20199;-69
2022/03/19 01:27:32;;;;;;;20.77;13.20;;;;;;;0.31;nan;97043.31;5153577;27;20191;-70
2022/03/19 01:29:59;;;;;;;23.53;13.23;;;;;;;0.31;nan;97044.16;5153084;27;20282;-70
2022/03/19 01:32:27;;;;;;;24.93;13.17;;;;;;;0.40;nan;97045.31;5153315;27;20791;-70
2022/03/19 01:34:54;;;;;;;21.67;12.80;;;;;;;0.37;nan;97043.53;5152565;27;20748;-70
2022/03/19 01:37:21;;;;;;;25.13;13.00;;;;;;;0.37;nan;97036.03;5152806;27;20283;-69
2022/03/19 01:39:48;;;;;;;23.30;13.27;;;;;;;0.09;nan;97040.78;5153634;27;20195;-69
2022/03/19 01:42:25;;;;;;;24.00;13.57;;;;;;;-0.18;nan;97031.44;5153164;27;20210;-70
2022/03/19 01:44:53;;;;;;;25.83;14.20;;;;;;;-0.38;nan;97039.78;5153259;27;20195;-70
2022/03/19 01:47:20;;;;;;;27.00;13.93;;;;;;;-0.52;nan;97028.41;5153201;27;20624;-69
2022/03/19 01:49:47;;;;;;;21.90;13.20;;;;;;;-0.59;nan;97029.78;5152842;27;20573;-70
2022/03/19 01:52:14;;;;;;;25.37;13.50;;;;;;;-0.59;nan;97036.44;5152139;27;20195;-70
2022/03/19 01:54:45;;;;;;;24.73;12.83;;;;;;;-0.61;nan;97035.50;5152407;27;20245;-69
2022/03/19 01:57:14;;;;;;;19.27;11.60;;;;;;;-0.66;nan;97039.47;5152603;27;20733;-70
2022/03/19 01:59:43;;;;;;;25.07;13.17;;;;;;;-0.67;nan;97033.63;5153200;27;20284;-71
2022/03/19 02:02:11;;;;;;;25.60;12.40;;;;;;;-0.43;nan;97033.75;5153250;27;20195;-70
2022/03/19 02:04:41;;;;;;;19.17;12.23;;;;;;;-0.34;nan;97029.13;5153249;27;20199;-70
2022/03/19 02:07:09;;;;;;;26.97;13.17;;;;;;;-0.33;nan;97035.00;5152266;27;20195;-70
2022/03/19 02:09:36;;;;;;;25.90;13.70;;;;;;;-0.52;nan;97021.78;5152704;27;20674;-71
2022/03/19 02:12:03;;;;;;;19.83;12.73;;;;;;;-0.69;nan;97025.19;5152896;27;20198;-70
2022/03/19 02:14:34;;;;;;;32.67;16.47;;;;;;;-0.56;nan;97021.59;5152458;27;20191;-70
2022/03/19 02:17:04;;;;;;;35.80;18.77;;;;;;;-0.63;nan;97015.47;5152618;27;20227;-71
2022/03/19 02:19:32;;;;;;;40.03;19.60;;;;;;;-0.58;nan;97023.16;5152212;27;20228;-70
2022/03/19 02:21:59;;;;;;;47.20;19.17;;;;;;;-0.61;nan;97021.38;5152064;27;20199;-72
2022/03/19 02:27:11;;;;;;;41.20;20.50;;;;;;;-0.91;nan;97020.13;5151804;27;20198;-71
2022/03/19 02:29:38;;;;;;;45.90;21.60;;;;;;;-1.04;nan;97031.25;5154656;27;20192;-71
2022/03/19 02:32:07;;;;;;;45.33;22.03;;;;;;;-1.01;nan;97013.91;5155636;27;20235;-71
2022/03/19 02:34:34;;;;;;;48.83;21.83;;;;;;;-1.00;nan;97023.09;5156386;27;20200;-70
2022/03/19 02:37:01;;;;;;;42.27;19.37;;;;;;;-142.91;100.00;56616.03;5156061;27;20231;-70
2022/03/19 02:39:31;;;;;;;46.57;20.10;;;;;;;-1.12;nan;97022.56;5155532;27;20192;-70
2022/03/19 02:42:01;;;;;;;44.10;19.07;;;;;;;-1.07;nan;97031.97;5165519;27;20289;-70
2022/03/19 02:44:28;;;;;;;40.50;19.73;;;;;;;-0.98;nan;97028.13;5177405;27;20194;-70
2022/03/19 02:46:57;;;;;;;34.73;18.67;;;;;;;-1.13;nan;97030.84;5176633;27;20749;-70
2022/03/19 02:49:24;;;;;;;38.93;18.30;;;;;;;-1.54;nan;97041.53;5176525;27;20204;-70
2022/03/19 02:51:53;;;;;;;36.13;18.07;;;;;;;-1.33;nan;97036.63;5176431;27;20191;-70
2022/03/19 02:54:22;;;;;;;37.70;18.00;;;;;;;-1.44;nan;97036.13;5176588;27;20195;-70
2022/03/19 02:56:51;;;;;;;39.47;18.53;;;;;;;-1.45;nan;97040.28;5176161;27;20227;-71
2022/03/19 02:59:20;;;;;;;41.77;21.80;;;;;;;-1.53;nan;97034.13;5176007;27;20709;-70
2022/03/19 03:01:47;;;;;;;46.87;23.40;;;;;;;-1.31;nan;97040.03;5176263;27;20709;-70
2022/03/19 03:04:15;;;;;;;43.20;22.50;;;;;;;-1.51;nan;97040.03;5176868;27;20216;-70
2022/03/19 03:06:44;;;;;;;39.63;18.57;;;;;;;-1.31;nan;97038.41;5176588;27;20191;-71
2022/03/19 03:09:11;;;;;;;41.27;18.53;;;;;;;-1.27;nan;97051.88;5176418;27;20572;-70
2022/03/19 03:11:39;;;;;;;36.10;18.10;;;;;;;-1.08;nan;97039.38;5175702;27;20665;-70
2022/03/19 03:14:08;;;;;;;42.07;20.57;;;;;;;-1.06;nan;97047.78;5176636;27;20199;-70
2022/03/19 03:16:36;;;;;;;38.10;19.47;;;;;;;-1.20;nan;97049.69;5175735;27;20681;-71
2022/03/19 03:19:05;;;;;;;41.47;19.50;;;;;;;-1.53;nan;97044.09;5175886;27;20605;-70
2022/03/19 03:21:33;;;;;;;43.83;20.63;;;;;;;-1.77;nan;97030.53;5175992;27;20191;-70
2022/03/19 03:24:01;;;;;;;50.00;21.00;;;;;;;-1.55;nan;97040.66;5176169;27;20190;-70
2022/03/19 03:26:28;;;;;;;37.70;19.93;;;;;;;-1.40;nan;97038.84;5175700;27;20191;-70
2022/03/19 03:28:56;;;;;;;35.07;18.80;;;;;;;-1.32;nan;97031.69;5175964;27;20330;-70
2022/03/19 03:31:25;;;;;;;36.03;18.53;;;;;;;-1.21;nan;97037.13;5176373;27;20195;-70
2022/03/19 03:33:52;;;;;;;39.40;18.43;;;;;;;-1.02;nan;97036.31;5175718;27;20198;-71
2022/03/19 03:36:19;;;;;;;32.60;16.37;;;;;;;-1.02;nan;97039.66;5175868;27;20253;-70
2022/03/19 03:38:46;;;;;;;32.77;17.80;;;;;;;-1.13;nan;97035.84;5176261;27;20247;-71
2022/03/19 03:41:12;;;;;;;29.83;17.63;;;;;;;-1.21;nan;97027.16;5174320;27;20702;-70
2022/03/19 03:43:39;;;;;;;36.33;16.73;;;;;;;-1.37;nan;97031.50;5175306;27;20187;-70
2022/03/19 03:46:06;;;;;;;33.53;16.37;;;;;;;-1.59;nan;97028.84;5175800;27;20195;-70
2022/03/19 03:48:36;;;;;;;30.43;16.50;;;;;;;-1.81;nan;97031.16;5175520;27;20274;-71
2022/03/19 03:51:06;;;;;;;31.87;15.40;;;;;;;-1.71;nan;97033.28;5175162;27;20570;-71
2022/03/19 03:53:35;;;;;;;33.80;16.17;;;;;;;-1.38;nan;97029.78;5175169;27;20199;-70
2022/03/19 03:56:03;;;;;;;33.13;15.93;;;;;;;-1.20;nan;97028.88;5175427;27;20720;-70
2022/03/19 03:58:29;;;;;;;29.30;15.87;;;;;;;-1.20;nan;97036.34;5175175;27;20266;-71
2022/03/19 04:00:57;;;;;;;25.80;14.60;;;;;;;-1.15;nan;97033.28;5175086;27;20207;-70
2022/03/19 04:03:24;;;;;;;26.47;15.20;;;;;;;-0.98;nan;97036.47;5159793;27;20259;-69
2022/03/19 04:05:52;;;;;;;27.87;16.60;;;;;;;-0.84;nan;97039.56;5153940;27;20196;-71
2022/03/19 04:08:19;;;;;;;33.17;15.67;;;;;;;-0.88;nan;97038.56;5154547;27;20200;-70
2022/03/19 04:10:46;;;;;;;28.17;16.30;;;;;;;-0.91;nan;97037.59;5168971;27;20693;-70
2022/03/19 04:13:14;;;;;;;31.70;15.83;;;;;;;-0.91;nan;97037.59;5175068;27;20191;-70
2022/03/19 04:15:40;;;;;;;31.20;16.47;;;;;;;-0.73;nan;97039.19;5175089;27;20741;-71
2022/03/19 04:18:07;;;;;;;36.87;15.50;;;;;;;-0.72;nan;97035.91;5175841;27;20196;-70
2022/03/19 04:20:34;;;;;;;30.63;16.53;;;;;;;-0.69;nan;97040.19;5175884;27;20187;-71
2022/03/19 04:23:02;;;;;;;37.47;17.73;;;;;;;-0.74;nan;97041.63;5175445;27;20243;-70
2022/03/19 04:25:29;;;;;;;32.33;15.83;;;;;;;-0.80;nan;97039.75;5175210;27;20191;-70
2022/03/19 04:27:57;;;;;;;34.67;15.10;;;;;;;-0.96;nan;97039.03;5175918;27;20233;-69
2022/03/19 04:30:26;;;;;;;36.73;15.23;;;;;;;-1.40;nan;97051.31;5175263;27;20199;-69
2022/03/19 04:32:55;;;;;;;38.43;15.73;;;;;;;-1.68;nan;97037.53;5175634;27;20226;-70
2022/03/19 04:38:10;;;;;;;40.87;17.90;;;;;;;-1.73;nan;97039.81;5175328;27;20210;-70
2022/03/19 04:40:37;;;;;;;35.80;16.53;;;;;;;-1.57;nan;97047.22;5174810;27;20674;-70
2022/03/19 04:43:04;;;;;;;34.70;16.93;;;;;;;-1.32;nan;97038.34;5174992;27;20235;-70
2022/03/19 04:45:31;;;;;;;26.50;15.57;;;;;;;-0.98;nan;97041.47;5175486;27;20190;-69
2022/03/19 04:47:58;;;;;;;36.33;15.73;;;;;;;-0.91;nan;97037.59;5174826;27;20263;-70
2022/03/19 04:50:25;;;;;;;38.40;16.17;;;;;;;-0.96;nan;97037.38;5174952;27;20186;-71
2022/03/19 04:52:52;;;;;;;33.20;16.30;;;;;;;-0.87;nan;97045.28;5174445;27;20768;-68
2022/03/19 04:55:21;;;;;;;30.90;17.30;;;;;;;-0.74;nan;97037.50;5174777;27;20251;-71
2022/03/19 04:57:49;;;;;;;35.40;15.10;;;;;;;-0.66;nan;97036.97;5175476;27;20222;-70
2022/03/19 05:00:17;;;;;;;31.47;15.73;;;;;;;-0.59;nan;97036.44;5174453;27;20301;-69
2022/03/19 05:02:44;;;;;;;23.27;13.23;;;;;;;-0.23;nan;97042.88;5174665;27;20191;-69
2022/03/19 05:05:12;;;;;;;29.97;14.83;;;;;;;0.25;nan;97035.56;5175409;27;20622;-70
2022/03/19 05:07:39;;;;;;;28.57;15.77;;;;;;;0.64;nan;97041.22;5174882;27;20701;-70
2022/03/19 05:12:54;;;;;;;45.60;21.63;;;;;;;1.80;nan;97038.50;5174777;27;20214;-70
2022/03/19 05:15:22;;;;;;;43.67;21.93;;;;;;;2.37;nan;97039.44;5175293;27;20224;-71
2022/03/19 05:17:48;;;;;;;39.07;19.80;;;;;;;3.15;nan;97028.22;5175016;27;20237;-70
2022/03/19 05:20:15;;;;;;;35.03;16.23;;;;;;;4.43;nan;97025.47;5174204;27;20255;-72
2022/03/19 05:22:42;;;;;;;30.93;17.20;;;;;;;4.79;nan;97027.03;5174565;27;20247;-71
2022/03/19 05:25:09;;;;;;;33.70;15.83;;;;;;;5.23;nan;97029.56;5175057;27;20253;-72
2022/03/19 05:27:37;;;;;;;33.55;18.10;;;;;;;-142.91;100.00;56616.03;5174412;27;20239;-71
2022/03/19 05:30:07;;;;;;;28.38;15.25;;;;;;;6.27;nan;97034.69;5174769;27;20191;-69
2022/03/19 05:32:34;;;;;;;40.53;15.88;;;;;;;7.03;nan;97033.16;5174840;27;20230;-70
2022/03/19 05:35:01;;;;;;;36.33;16.48;;;;;;;7.87;nan;97026.44;5174002;27;20666;-70
2022/03/19 05:37:28;;;;;;;25.83;16.05;;;;;;;8.96;nan;97024.59;5174523;27;20226;-70
2022/03/19 05:39:56;;;;;;;24.52;15.43;;;;;;;10.02;nan;97020.56;5174483;27;20278;-71
2022/03/19 05:42:23;;;;;;;15.98;10.50;;;;;;;10.73;nan;97028.13;5175063;27;20191;-70
2022/03/19 05:44:50;;;;;;;15.20;8.80;;;;;;;10.53;nan;97024.78;5174720;27;20191;-72
2022/03/19 05:47:18;;;;;;;15.95;9.05;;;;;;;9.80;nan;97024.81;5174759;27;20190;-70
2022/03/19 05:49:44;;;;;;;20.13;10.27;;;;;;;9.39;nan;97025.59;5173863;27;20199;-72
2022/03/19 05:52:11;;;;;;;21.67;10.13;;;;;;;10.38;nan;97024.81;5173950;27;20187;-71
2022/03/19 05:54:38;;;;;;;15.30;10.40;;;;;;;11.97;nan;97022.41;5174349;27;20191;-71
2022/03/19 05:57:06;;;;;;;16.73;10.48;;;;;;;12.43;nan;97026.25;5174237;27;20271;-70
2022/03/19 05:59:33;;;;;;;21.02;12.07;;;;;;;13.22;nan;97030.50;5174600;27;20206;-71
2022/03/19 06:02:00;;;;;;;23.70;13.85;;;;;;;12.45;nan;97024.53;5174920;27;20232;-73
2022/03/19 06:04:28;;;;;;;24.70;14.38;;;;;;;11.82;nan;97041.22;5173065;27;20239;-70
2022/03/19 06:06:54;;;;;;;25.50;15.77;;;;;;;11.76;nan;97036.09;5173888;27;20244;-71
2022/03/19 06:09:21;;;;;;;21.13;12.25;;;;;;;12.23;nan;97039.19;5173979;27;20247;-70
2022/03/19 06:11:48;;;;;;;14.45;11.07;;;;;;;11.77;nan;97033.59;5174073;27;20195;-71
2022/03/19 06:14:15;;;;;;;16.48;11.60;;;;;;;12.12;nan;97030.78;5173664;27;20195;-71
2022/03/19 06:16:42;;;;;;;15.88;10.85;;;;;;;11.48;nan;97028.63;5173853;27;20219;-72
2022/03/19 06:19:09;;;;;;;19.27;12.80;;;;;;;12.14;nan;97030.75;5173829;27;20243;-71
2022/03/19 06:21:39;;;;;;;21.05;12.35;;;;;;;12.38;nan;97027.13;5173439;27;20246;-71
2022/03/19 06:24:09;;;;;;;20.90;12.70;;;;;;;14.04;nan;97025.09;5173951;27;20574;-72
2022/03/19 06:26:36;;;;;;;16.15;11.93;;;;;;;15.43;nan;97016.50;5174538;27;20283;-73
2022/03/19 06:29:04;;;;;;;21.48;12.25;;;;;;;15.48;nan;97022.38;5174277;27;20191;-71
2022/03/19 06:31:31;;;;;;;18.15;11.40;;;;;;;15.66;nan;97016.03;5174183;27;20251;-72
2022/03/19 06:33:58;;;;;;;19.30;12.00;;;;;;;14.39;nan;97015.09;5173711;27;20311;-73
2022/03/19 06:39:11;;;;;;;24.70;12.73;;;;;;;14.62;nan;97019.84;5173842;27;20198;-71
2022/03/19 06:41:37;;;;;;;20.08;13.18;;;;;;;15.81;nan;97030.25;5173684;27;20658;-70
2022/03/19 06:44:05;;;;;;;30.67;17.27;;;;;;;16.33;nan;97020.41;5174064;27;20195;-70
2022/03/19 06:46:32;;;;;;;22.95;15.95;;;;;;;16.92;nan;97020.59;5173233;27;20658;-71
2022/03/19 06:48:59;;;;;;;28.60;15.98;;;;;;;17.20;nan;97014.69;5173458;27;20576;-71
2022/03/19 06:51:26;;;;;;;25.65;15.48;;;;;;;16.90;nan;97021.53;5173911;27;20191;-71
2022/03/19 06:53:52;;;;;;;21.55;15.55;;;;;;;17.25;nan;97020.56;5173074;27;20243;-71
2022/03/19 06:56:21;;;;;;;23.25;13.02;;;;;;;18.49;nan;97012.41;5174380;27;20191;-72
2022/03/19 06:58:48;;;;;;;17.63;12.10;;;;;;;17.94;nan;97009.91;5173796;27;20619;-72
2022/03/19 07:01:17;;;;;;;24.90;16.75;;;;;;;19.96;nan;96998.41;5173271;27;20195;-71
2022/03/19 07:03:45;;;;;;;28.35;17.30;;;;;;;17.60;nan;97007.47;5174214;27;20194;-69
2022/03/19 07:06:13;;;;;;;26.88;16.17;;;;;;;16.40;nan;97004.84;5173649;27;20677;-70
2022/03/19 07:08:40;;;;;;;23.55;14.25;;;;;;;17.26;nan;97005.09;5173252;27;20191;-70
2022/03/19 07:11:07;;;;;;;23.88;16.83;;;;;;;18.72;nan;97004.75;5173470;27;20198;-71
2022/03/19 07:13:35;;;;;;;24.55;17.67;;;;;;;19.74;nan;96998.44;5173202;27;20194;-71
2022/03/19 07:16:02;;;;;;;22.25;14.57;;;;;;;19.50;nan;96995.06;5176791;27;20194;-70
2022/03/19 07:18:29;;;;;;;16.58;13.25;;;;;;;19.57;nan;96996.47;5177497;27;20252;-71
2022/03/19 07:20:55;;;;;;;21.25;13.73;;;;;;;19.12;nan;96998.19;5177013;27;20206;-71
2022/03/19 07:23:22;;;;;;;18.98;11.98;;;;;;;18.34;nan;97001.72;5176704;27;20203;-70
2022/03/19 07:25:50;;;;;;;15.90;12.90;;;;;;;18.60;nan;97005.16;5177266;27;20240;-70
2022/03/19 07:28:20;;;;;;;20.10;13.43;;;;;;;18.89;nan;97002.41;5177102;27;20219;-70
2022/03/19 07:30:48;;;;;;;21.95;14.10;;;;;;;20.35;nan;96991.63;5176945;27;20190;-70
2022/03/19 07:33:15;;;;;;;22.45;13.70;;;;;;;20.69;nan;96995.41;5177325;27;20647;-71
2022/03/19 07:35:43;;;;;;;30.77;16.95;;;;;;;19.72;nan;96996.81;5176605;27;20191;-70
2022/03/19 07:38:11;;;;;;;41.08;17.92;;;;;;;20.57;nan;96991.59;5176156;27;20299;-70
2022/03/19 07:43:23;;;;;;;33.10;19.08;;;;;;;21.16;nan;96997.66;5176549;27;20190;-70
2022/03/19 07:45:52;;;;;;;37.25;21.17;;;;;;;18.54;nan;96997.66;5177248;27;20191;-70
2022/03/19 07:48:20;;;;;;;21.98;13.45;;;;;;;17.73;nan;96991.72;5176843;27;20281;-70
2022/03/19 07:50:47;;;;;;;20.30;12.88;;;;;;;18.64;nan;96991.31;5177268;27;20646;-70
2022/03/19 07:53:14;;;;;;;17.33;12.90;;;;;;;20.52;nan;96990.13;5175658;27;20192;-71
2022/03/19 07:55:41;;;;;;;16.70;11.43;;;;;;;19.75;nan;97001.84;5176034;27;20661;-71
2022/03/19 07:58:08;;;;;;;13.80;10.43;;;;;;;20.96;nan;96981.28;5176215;27;20225;-71
2022/03/19 08:00:35;;;;;;;15.60;11.80;;;;;;;18.94;nan;96994.53;5175447;27;20222;-69
2022/03/19 08:03:03;;;;;;;12.32;10.13;;;;;;;18.22;nan;96994.41;5175644;27;20195;-70
2022/03/19 08:05:30;;;;;;;23.38;15.48;;;;;;;20.01;nan;96981.00;5175274;27;20286;-71
2022/03/19 08:07:57;;;;;;;15.10;11.73;;;;;;;19.85;nan;96982.50;5175356;27;20586;-70
2022/03/19 08:10:24;;;;;;;17.90;11.50;;;;;;;19.99;nan;96990.56;5175412;27;20203;-71
2022/03/19 08:12:53;;;;;;;15.13;11.27;;;;;;;19.96;nan;96988.94;5175278;27;20191;-70
2022/03/19 08:15:21;;;;;;;11.93;9.23;;;;;;;18.79;nan;96985.63;5175006;27;20191;-70
2022/03/19 08:17:48;;;;;;;14.52;9.25;;;;;;;17.89;nan;96998.06;5175077;27;20218;-71
2022/03/19 08:20:17;;;;;;;31.27;18.27;;;;;;;18.64;nan;96986.16;5175222;27;20521;-69
2022/03/19 08:22:44;;;;;;;13.68;11.43;;;;;;;19.34;nan;96983.59;5175416;27;20195;-68
2022/03/19 08:25:10;;;;;;;9.60;8.68;;;;;;;18.07;nan;96988.91;5174922;27;20191;-70
2022/03/19 08:27:38;;;;;;;12.82;9.55;;;;;;;14.07;nan;96995.22;5174157;27;20291;-69
2022/03/19 08:30:06;;;;;;;11.32;9.02;;;;;;;12.44;nan;96996.47;5175363;27;20276;-69
2022/03/19 08:32:34;;;;;;;16.50;8.50;;;;;;;12.06;nan;96990.06;5175092;27;20239;-69
2022/03/19 08:35:01;;;;;;;13.27;9.35;;;;;;;11.64;nan;96995.44;5174991;27;20195;-70
2022/03/19 08:37:29;;;;;;;18.92;11.27;;;;;;;11.83;nan;96994.50;5174585;27;20235;-69
2022/03/19 08:42:42;;;;;;;10.73;8.20;;;;;;;11.26;nan;96986.34;5174272;27;20187;-69
2022/03/19 08:45:09;;;;;;;10.45;8.48;;;;;;;10.90;nan;96990.75;5174312;27;20186;-72
2022/03/19 08:47:36;;;;;;;17.80;10.13;;;;;;;9.47;nan;96979.91;5175121;27;20681;-70
2022/03/19 08:50:03;;;;;;;10.20;8.13;;;;;;;8.69;nan;96991.50;5174594;27;20233;-70
2022/03/19 08:52:33;;;;;;;10.75;8.43;;;;;;;7.77;nan;96985.00;5174357;27;20279;-69
2022/03/19 08:55:01;;;;;;;13.90;7.75;;;;;;;8.25;nan;96983.66;5174782;27;20248;-70
2022/03/19 08:57:28;;;;;;;9.73;7.70;;;;;;;8.07;nan;96985.22;5174534;27;20233;-70
2022/03/19 08:59:54;;;;;;;10.73;8.05;;;;;;;8.25;nan;96973.50;5174088;27;20215;-69
2022/03/19 09:02:22;;;;;;;7.68;6.55;;;;;;;7.38;nan;96986.34;5174527;27;20191;-71
2022/03/19 09:04:49;;;;;;;6.90;6.03;;;;;;;7.20;nan;96981.09;5174719;27;20212;-71
2022/03/19 09:10:38;;;;;;;13.02;6.75;;;;;;;6.62;nan;96985.50;5120242;27;20247;-70
2022/03/19 09:13:06;;;;;;;13.87;6.30;;;;;;;6.60;nan;96986.31;5143197;27;20272;-70
2022/03/19 09:15:33;;;;;;;13.02;7.85;;;;;;;6.98;nan;96981.69;5143414;27;21721;-70
2022/03/19 09:18:00;;;;;;;7.67;6.37;;;;;;;6.80;nan;96975.63;5144011;27;20578;-69
2022/03/19 09:20:27;;;;;;;8.60;7.15;;;;;;;6.26;nan;96983.34;5142332;27;20195;-71
2022/03/19 09:22:53;;;;;;;6.65;6.03;;;;;;;6.85;nan;96984.94;5142632;27;20304;-70
2022/03/19 09:25:20;;;;;;;13.40;7.77;;;;;;;7.21;nan;96987.00;5143893;27;20626;-70
2022/03/19 09:27:48;;;;;;;9.02;6.13;;;;;;;7.24;nan;96982.81;5143251;27;20200;-70
2022/03/19 09:30:15;;;;;;;10.02;7.63;;;;;;;6.83;nan;96974.81;5142922;27;20204;-70
2022/03/19 09:32:42;;;;;;;9.57;7.70;;;;;;;7.11;nan;96970.91;5143222;27;20270;-71
2022/03/19 09:35:09;;;;;;;7.85;7.13;;;;;;;6.92;nan;96969.03;5139686;27;20674;-70
2022/03/19 09:37:36;;;;;;;9.13;7.60;;;;;;;6.40;nan;96983.53;5141476;27;20735;-71
2022/03/19 09:40:04;;;;;;;11.95;6.18;;;;;;;6.53;nan;96975.28;5139200;27;20200;-70
2022/03/19 09:42:32;;;;;;;8.65;5.80;;;;;;;7.06;nan;96972.53;5142667;27;20206;-71
2022/03/19 09:45:01;;;;;;;7.68;6.40;;;;;;;7.04;nan;96964.94;5139192;27;20203;-70
2022/03/19 09:47:27;;;;;;;7.43;5.75;;;;;;;7.35;nan;96960.19;5142149;27;20202;-69
2022/03/19 09:49:54;;;;;;;10.15;6.93;;;;;;;6.76;nan;96963.78;5135658;27;20195;-70
2022/03/19 09:52:24;;;;;;;11.13;6.75;;;;;;;6.92;nan;96958.91;5142200;27;20581;-70
2022/03/19 09:54:51;;;;;;;7.38;6.60;;;;;;;7.25;nan;96966.81;5142845;27;20196;-72
2022/03/19 09:57:19;;;;;;;6.90;5.40;;;;;;;6.17;nan;96980.72;5140721;27;20203;-70
2022/03/19 09:59:45;;;;;;;6.82;6.13;;;;;;;5.37;nan;96982.78;5143508;27;22231;-69
2022/03/19 10:02:15;;;;;;;8.07;6.25;;;;;;;4.78;nan;96980.84;5141258;27;20251;-69
2022/03/19 10:04:42;;;;;;;9.23;6.50;;;;;;;4.70;nan;96971.47;5141910;27;20195;-71
2022/03/19 10:10:03;;;;;;;7.43;6.35;;;;;;;4.70;nan;96968.94;5105927;27;20207;-69
2022/03/19 10:12:31;;;;;;;8.43;5.60;;;;;;;5.02;nan;96959.44;5142718;27;20206;-70
2022/03/19 10:14:59;;;;;;;8.67;6.10;;;;;;;5.21;nan;96965.66;5142007;27;20285;-71
2022/03/19 10:17:30;;;;;;;7.03;6.30;;;;;;;5.35;nan;96975.16;5144212;27;20694;-71
2022/03/19 10:20:02;;;;;;;12.95;5.97;;;;;;;5.58;nan;96957.06;5144384;27;20203;-69
2022/03/19 10:22:30;;;;;;;10.07;6.07;;;;;;;5.71;nan;96958.94;5142761;27;20612;-70
2022/03/19 10:24:59;;;;;;;11.87;7.07;;;;;;;5.46;nan;96958.53;5142793;27;20191;-69
2022/03/19 10:27:26;;;;;;;8.20;6.45;;;;;;;4.99;nan;96959.38;5142955;27;20195;-71
2022/03/19 10:30:05;;;;;;;8.15;7.15;;;;;;;5.29;nan;96949.84;5142879;27;20539;-68
2022/03/19 10:32:33;;;;;;;7.85;7.05;;;;;;;6.03;nan;96942.63;5138786;27;20237;-69
2022/03/19 10:35:01;;;;;;;6.88;5.88;;;;;;;5.87;nan;96930.59;5139739;27;21265;-72
2022/03/19 10:37:36;;;;;;;10.13;6.85;;;;;;;6.00;nan;96947.63;5140370;27;20269;-70
2022/03/19 10:40:04;;;;;;;9.63;6.15;;;;;;;6.06;nan;96950.25;5141144;27;20570;-71
2022/03/19 10:42:37;;;;;;;7.88;5.55;;;;;;;5.12;nan;96947.03;5144639;27;20286;-68
2022/03/19 10:45:05;;;;;;;8.70;5.97;;;;;;;5.14;nan;96944.56;5145894;27;20195;-70
2022/03/19 10:47:43;;;;;;;7.78;6.28;;;;;;;5.40;nan;96948.38;5141655;27;20206;-71
2022/03/19 10:50:11;;;;;;;6.03;5.53;;;;;;;5.78;nan;96950.63;5143680;27;20194;-70
2022/03/19 10:52:38;;;;;;;6.33;5.73;;;;;;;5.81;nan;96950.69;5144722;27;20217;-70
2022/03/19 10:55:07;;;;;;;5.82;5.25;;;;;;;5.84;nan;96940.66;5146086;27;20682;-69
2022/03/19 10:57:34;;;;;;;5.88;5.38;;;;;;;5.76;nan;96962.38;5147213;27;20202;-70
2022/03/19 11:00:02;;;;;;;11.85;4.78;;;;;;;5.51;nan;96945.16;5144992;27;20647;-70
2022/03/19 11:02:31;;;;;;;5.67;5.13;;;;;;;5.14;nan;96939.53;5149491;27;20192;-69
2022/03/19 11:05:01;;;;;;;5.75;5.28;;;;;;;4.73;nan;96937.06;5148431;27;20199;-70
2022/03/19 11:07:32;;;;;;;9.27;5.38;;;;;;;5.22;nan;96932.06;5150045;27;20197;-70
2022/03/19 11:10:00;;;;;;;8.52;6.07;;;;;;;5.66;nan;96940.38;5149955;27;20223;-70
2022/03/19 11:12:32;;;;;;;9.05;5.18;;;;;;;5.87;nan;96940.69;5150195;27;20677;-69
2022/03/19 11:14:59;;;;;;;7.20;6.05;;;;;;;5.71;nan;96931.19;5151359;27;20694;-71
2022/03/19 11:17:30;;;;;;;6.70;6.03;;;;;;;5.78;nan;96941.38;5149730;27;20620;-70
2022/03/19 11:20:00;;;;;;;6.30;5.65;;;;;;;6.13;nan;96929.31;5151007;27;20223;-71
2022/03/19 11:22:30;;;;;;;6.30;5.43;;;;;;;5.83;nan;96936.41;5151531;27;20188;-70
2022/03/19 11:25:03;;;;;;;7.07;5.45;;;;;;;6.11;nan;96928.44;5151295;27;20199;-70
2022/03/19 11:27:33;;;;;;;6.88;6.20;;;;;;;5.02;nan;96934.25;5151368;27;20196;-71
2022/03/19 11:30:00;;;;;;;7.70;5.53;;;;;;;5.00;nan;96930.84;5152139;27;20399;-70
2022/03/19 11:32:27;;;;;;;6.55;5.88;;;;;;;5.14;nan;96942.03;5152503;27;20227;-69
2022/03/19 11:34:59;;;;;;;7.17;6.13;;;;;;;5.18;nan;96926.16;5153231;27;20211;-69
2022/03/19 11:38:02;;;;;;;5.53;5.03;;;;;;;5.12;nan;96929.41;5154305;27;20196;-70
2022/03/19 11:40:32;;;;;;;4.33;3.93;;;;;;;5.04;nan;96920.00;5154427;27;20191;-69
2022/03/19 11:43:02;;;;;;;6.50;5.35;;;;;;;5.10;nan;96915.94;5154533;27;20191;-72
2022/03/19 11:45:38;;;;;;;5.90;5.38;;;;;;;5.43;nan;96913.13;5154791;27;20188;-68
2022/03/19 11:48:26;;;;;;;5.57;4.97;;;;;;;5.52;nan;96917.44;5154559;27;20195;-68
2022/03/19 11:50:53;;;;;;;5.43;4.93;;;;;;;5.24;nan;96913.63;5154111;27;20677;-69
2022/03/19 11:53:26;;;;;;;5.50;4.93;;;;;;;5.13;nan;96915.13;5154331;27;20315;-69
2022/03/19 11:56:03;;;;;;;5.57;4.87;;;;;;;5.47;nan;96912.31;5154311;27;20203;-68
2022/03/19 11:58:32;;;;;;;6.65;6.03;;;;;;;5.33;nan;96901.19;5153940;27;20317;-70
2022/03/19 12:01:02;;;;;;;6.93;5.47;;;;;;;5.30;nan;96900.28;5152566;27;20268;-69
2022/03/19 12:03:29;;;;;;;5.50;4.82;;;;;;;5.19;nan;96910.19;5154140;27;20198;-71
2022/03/19 12:05:56;;;;;;;5.65;5.10;;;;;;;5.17;nan;96911.84;5154222;27;20214;-68
2022/03/19 12:08:26;;;;;;;5.00;4.50;;;;;;;5.20;nan;96903.50;5154064;27;20195;-68